createdAt,value
2017-07-29T00:00:16.050Z,53.20
2017-07-29T00:02:44.139Z,52.90
2017-07-29T00:05:12.235Z,53.30
2017-07-29T00:07:41.086Z,52.70
2017-07-29T00:10:09.546Z,52.90
2017-07-29T00:12:37.674Z,53.20
2017-07-29T00:15:05.770Z,53.60
2017-07-29T00:17:33.855Z,53.50
2017-07-29T00:20:01.967Z,54.00
2017-07-29T00:22:30.038Z,55.20
2017-07-29T00:24:58.927Z,56.30
2017-07-29T00:27:26.994Z,54.70
2017-07-29T00:29:55.081Z,54.90
2017-07-29T00:32:23.950Z,55.40
2017-07-29T00:34:52.071Z,54.20
2017-07-29T00:37:20.534Z,54.30
2017-07-29T00:39:49.052Z,54.20
2017-07-29T00:42:17.532Z,54.60
2017-07-29T00:44:45.602Z,55.20
2017-07-29T00:47:13.697Z,54.90
2017-07-29T00:49:41.780Z,55.60
2017-07-29T00:52:09.863Z,55.50
2017-07-29T00:54:37.982Z,56.00
2017-07-29T00:57:06.472Z,56.50
2017-07-29T00:59:34.578Z,56.40
2017-07-29T01:02:02.695Z,56.90
2017-07-29T01:04:30.766Z,57.60
2017-07-29T01:06:58.850Z,57.60
2017-07-29T01:09:26.976Z,57.80
2017-07-29T01:11:55.042Z,57.50
2017-07-29T01:14:23.128Z,57.70
2017-07-29T01:16:51.251Z,57.40
2017-07-29T01:19:19.727Z,57.50
2017-07-29T01:21:47.826Z,57.90
2017-07-29T01:24:15.915Z,58.10
2017-07-29T01:26:45.515Z,57.90
2017-07-29T01:29:13.989Z,57.00
2017-07-29T01:31:42.874Z,57.40
2017-07-29T01:34:10.951Z,57.70
2017-07-29T01:36:39.055Z,57.50
2017-07-29T01:39:07.525Z,57.50
2017-07-29T01:41:35.990Z,57.50
2017-07-29T01:44:04.094Z,58.20
2017-07-29T01:46:32.949Z,59.70
2017-07-29T01:49:01.082Z,58.70
2017-07-29T01:51:29.170Z,59.30
2017-07-29T01:53:57.243Z,58.00
2017-07-29T01:56:26.480Z,58.00
2017-07-29T01:58:54.974Z,57.50
2017-07-29T02:01:23.731Z,57.50
2017-07-29T02:03:51.819Z,57.50
2017-07-29T02:06:19.914Z,57.60
2017-07-29T02:08:48.014Z,57.70
2017-07-29T02:11:16.090Z,58.00
2017-07-29T02:13:44.166Z,58.70
2017-07-29T02:16:12.319Z,58.30
2017-07-29T02:18:40.786Z,57.70
2017-07-29T02:21:09.630Z,57.80
2017-07-29T02:23:37.734Z,57.00
2017-07-29T02:26:05.838Z,57.20
2017-07-29T02:28:35.023Z,58.10
2017-07-29T02:31:03.131Z,57.90
2017-07-29T02:33:31.202Z,58.60
2017-07-29T02:35:59.286Z,58.50
2017-07-29T02:38:28.591Z,57.40
2017-07-29T02:40:57.390Z,58.60
2017-07-29T02:43:25.462Z,59.00
2017-07-29T02:45:53.633Z,59.10
2017-07-29T02:48:21.817Z,58.70
2017-07-29T02:50:49.940Z,58.80
2017-07-29T02:53:18.414Z,58.70
2017-07-29T02:55:47.261Z,60.00
2017-07-29T02:58:15.767Z,59.20
2017-07-29T03:00:43.846Z,59.00
2017-07-29T03:03:15.600Z,59.40
2017-07-29T03:05:44.881Z,59.20
2017-07-29T03:08:12.953Z,59.30
2017-07-29T03:10:41.038Z,59.30
2017-07-29T03:13:12.889Z,59.80
2017-07-29T03:15:41.799Z,59.50
2017-07-29T03:18:09.943Z,59.90
2017-07-29T03:20:37.983Z,59.50
2017-07-29T03:23:06.893Z,59.20
2017-07-29T03:25:34.970Z,58.60
2017-07-29T03:28:03.478Z,58.60
2017-07-29T03:30:31.550Z,59.10
2017-07-29T03:32:59.621Z,58.90
2017-07-29T03:35:27.719Z,58.60
2017-07-29T03:37:56.570Z,58.70
2017-07-29T03:40:26.585Z,59.20
2017-07-29T03:42:55.098Z,58.90
2017-07-29T03:45:24.054Z,59.80
2017-07-29T03:47:52.230Z,58.70
2017-07-29T03:50:20.822Z,59.30
2017-07-29T03:52:48.885Z,59.10
2017-07-29T03:55:16.991Z,59.50
2017-07-29T03:57:45.089Z,60.10
2017-07-29T04:00:13.202Z,59.30
2017-07-29T04:02:41.350Z,59.40
2017-07-29T04:05:10.310Z,58.80
2017-07-29T04:07:38.365Z,58.30
2017-07-29T04:10:07.738Z,57.50
2017-07-29T04:12:35.841Z,57.50
2017-07-29T04:15:03.991Z,56.70
2017-07-29T04:17:32.462Z,56.80
2017-07-29T04:20:00.650Z,56.70
2017-07-29T04:22:28.818Z,57.20
2017-07-29T04:24:56.907Z,57.10
2017-07-29T04:27:25.069Z,57.60
2017-07-29T04:29:53.158Z,57.60
2017-07-29T04:32:21.246Z,57.60
2017-07-29T04:34:49.741Z,57.60
2017-07-29T04:37:17.918Z,58.10
2017-07-29T04:39:46.228Z,58.20
2017-07-29T04:42:15.085Z,58.90
2017-07-29T04:44:43.218Z,58.00
2017-07-29T04:47:11.729Z,57.70
2017-07-29T04:49:40.682Z,58.10
2017-07-29T04:52:08.864Z,57.70
2017-07-29T04:54:37.433Z,57.20
2017-07-29T04:57:05.930Z,57.20
2017-07-29T04:59:34.425Z,56.90
2017-07-29T05:02:02.493Z,57.20
2017-07-29T05:04:30.979Z,56.20
2017-07-29T05:06:59.115Z,56.60
2017-07-29T05:09:27.186Z,56.50
2017-07-29T05:11:55.266Z,56.00
2017-07-29T05:14:23.370Z,56.00
2017-07-29T05:16:52.213Z,57.20
2017-07-29T05:19:20.741Z,57.10
2017-07-29T05:21:48.809Z,56.90
2017-07-29T05:24:17.669Z,57.10
2017-07-29T05:26:45.862Z,56.40
2017-07-29T05:29:13.942Z,57.80
2017-07-29T05:31:42.025Z,57.90
2017-07-29T05:34:10.146Z,56.90
2017-07-29T05:36:38.968Z,57.10
2017-07-29T05:39:07.050Z,56.20
2017-07-29T05:41:35.149Z,55.20
2017-07-29T05:44:04.102Z,56.70
2017-07-29T05:46:32.303Z,55.70
2017-07-29T05:49:05.894Z,55.60
2017-07-29T05:51:34.050Z,55.10
2017-07-29T05:54:02.518Z,55.10
2017-07-29T05:56:31.021Z,55.70
2017-07-29T05:58:59.489Z,56.20
2017-07-29T06:01:28.513Z,55.30
2017-07-29T06:03:57.070Z,55.20
2017-07-29T06:06:25.542Z,55.20
2017-07-29T06:08:53.748Z,54.60
2017-07-29T06:11:21.797Z,54.80
2017-07-29T06:13:49.978Z,54.40
2017-07-29T06:16:18.145Z,55.50
2017-07-29T06:18:46.647Z,54.80
2017-07-29T06:21:14.766Z,54.50
2017-07-29T06:23:42.842Z,54.30
2017-07-29T06:26:10.919Z,54.90
2017-07-29T06:28:39.022Z,53.60
2017-07-29T06:31:07.104Z,52.90
2017-07-29T06:33:35.198Z,53.70
2017-07-29T06:36:03.275Z,54.20
2017-07-29T06:38:32.110Z,53.80
2017-07-29T06:41:00.229Z,53.90
2017-07-29T06:43:29.070Z,54.70
2017-07-29T06:45:57.142Z,53.80
2017-07-29T06:48:25.968Z,53.40
2017-07-29T06:50:54.034Z,53.50
2017-07-29T06:53:22.121Z,52.60
2017-07-29T06:55:50.198Z,53.20
2017-07-29T06:58:19.063Z,53.60
2017-07-29T07:00:47.154Z,53.60
2017-07-29T07:03:17.791Z,53.00
2017-07-29T07:05:47.065Z,52.40
2017-07-29T07:08:15.225Z,53.00
2017-07-29T07:10:43.426Z,51.20
2017-07-29T07:13:11.985Z,51.40
2017-07-29T07:15:40.168Z,51.90
2017-07-29T07:18:08.249Z,50.90
2017-07-29T07:20:36.345Z,51.10
2017-07-29T07:23:05.214Z,51.70
2017-07-29T07:25:33.786Z,51.20
2017-07-29T07:28:01.870Z,51.30
2017-07-29T07:30:29.945Z,50.30
2017-07-29T07:33:00.070Z,50.00
2017-07-29T07:35:28.238Z,48.30
2017-07-29T07:37:56.394Z,47.70
2017-07-29T07:40:24.499Z,48.30
2017-07-29T07:42:52.641Z,46.90
2017-07-29T07:45:20.718Z,47.40
2017-07-29T07:47:48.822Z,44.90
2017-07-29T07:50:17.671Z,46.80
2017-07-29T07:52:45.742Z,45.00
2017-07-29T07:55:13.871Z,45.00
2017-07-29T07:57:42.006Z,45.40
2017-07-29T08:00:10.908Z,44.50
2017-07-29T08:02:40.763Z,45.10
2017-07-29T08:05:08.935Z,42.00
2017-07-29T08:07:39.073Z,43.40
2017-07-29T08:10:07.229Z,42.50
2017-07-29T08:12:35.428Z,41.60
2017-07-29T08:15:03.505Z,41.80
2017-07-29T08:17:32.373Z,42.30
2017-07-29T08:20:00.550Z,41.40
2017-07-29T08:22:28.617Z,41.60
2017-07-29T08:24:56.705Z,40.40
2017-07-29T08:27:24.863Z,40.20
2017-07-29T08:29:53.033Z,40.90
2017-07-29T08:32:21.136Z,40.30
2017-07-29T08:34:49.663Z,40.30
2017-07-29T08:37:17.813Z,38.30
2017-07-29T08:39:47.149Z,38.90
2017-07-29T08:42:15.750Z,37.70
2017-07-29T08:44:43.829Z,38.00
2017-07-29T08:47:12.403Z,37.60
2017-07-29T08:49:40.547Z,35.90
2017-07-29T08:52:08.678Z,35.50
2017-07-29T08:54:36.771Z,35.70
2017-07-29T08:57:05.720Z,36.30
2017-07-29T08:59:33.890Z,34.20
2017-07-29T09:02:01.982Z,34.50
2017-07-29T09:04:30.080Z,34.80
2017-07-29T09:06:58.210Z,33.00
2017-07-29T09:09:27.071Z,33.60
2017-07-29T09:11:55.280Z,34.20
2017-07-29T09:14:23.347Z,34.90
2017-07-29T09:16:51.418Z,34.50
2017-07-29T09:19:19.559Z,35.70
2017-07-29T09:21:53.430Z,35.40
2017-07-29T09:24:22.698Z,34.80
2017-07-29T09:26:50.798Z,33.70
2017-07-29T09:29:19.662Z,34.10
2017-07-29T09:31:47.840Z,34.50
2017-07-29T09:34:16.010Z,34.60
2017-07-29T09:36:44.182Z,35.20
2017-07-29T09:39:12.342Z,35.60
2017-07-29T09:41:41.161Z,35.50
2017-07-29T09:44:09.317Z,35.00
2017-07-29T09:46:37.901Z,34.50
2017-07-29T09:49:05.998Z,34.80
2017-07-29T09:51:34.146Z,35.50
2017-07-29T09:54:06.806Z,34.20
2017-07-29T09:56:35.002Z,33.60
2017-07-29T09:59:03.181Z,34.10
2017-07-29T10:01:31.371Z,33.40
2017-07-29T10:03:59.483Z,34.70
2017-07-29T10:06:27.560Z,33.70
2017-07-29T10:08:56.385Z,34.00
2017-07-29T10:11:24.562Z,34.00
2017-07-29T10:13:52.734Z,33.70
2017-07-29T10:16:20.823Z,34.20
2017-07-29T10:18:48.986Z,34.60
2017-07-29T10:21:17.971Z,33.40
2017-07-29T10:23:46.043Z,34.80
2017-07-29T10:26:14.222Z,35.40
2017-07-29T10:28:42.292Z,33.10
2017-07-29T10:31:12.519Z,34.70
2017-07-29T10:33:40.690Z,33.10
2017-07-29T10:36:08.807Z,32.60
2017-07-29T10:38:37.649Z,32.10
2017-07-29T10:41:06.145Z,30.60
2017-07-29T10:43:34.307Z,30.10
2017-07-29T10:46:02.478Z,30.90
2017-07-29T10:48:30.661Z,31.60
2017-07-29T10:50:58.839Z,31.20
2017-07-29T10:53:27.005Z,29.40
2017-07-29T10:55:58.830Z,28.50
2017-07-29T10:58:27.365Z,28.70
2017-07-29T11:00:55.490Z,28.30
2017-07-29T11:03:23.605Z,27.30
2017-07-29T11:05:51.778Z,27.20
2017-07-29T11:08:19.855Z,27.30
2017-07-29T11:10:48.005Z,27.50
2017-07-29T11:13:16.490Z,27.10
2017-07-29T11:15:44.572Z,27.50
2017-07-29T11:18:12.706Z,27.00
2017-07-29T11:20:40.809Z,27.60
2017-07-29T11:23:08.989Z,26.70
2017-07-29T11:25:37.162Z,26.30
2017-07-29T11:28:06.056Z,25.70
2017-07-29T11:30:34.590Z,25.70
2017-07-29T11:33:02.671Z,25.40
2017-07-29T11:35:30.894Z,26.20
2017-07-29T11:37:59.042Z,26.40
2017-07-29T11:40:27.122Z,26.00
2017-07-29T11:42:55.297Z,25.10
2017-07-29T11:45:23.890Z,25.20
2017-07-29T11:47:51.989Z,25.20
2017-07-29T11:50:20.850Z,25.60
2017-07-29T11:52:49.021Z,26.20
2017-07-29T11:55:17.102Z,26.50
2017-07-29T11:57:45.177Z,27.80
2017-07-29T12:00:14.470Z,27.90
2017-07-29T12:02:42.644Z,27.90
2017-07-29T12:05:10.815Z,26.50
2017-07-29T12:07:38.889Z,26.00
2017-07-29T12:10:07.475Z,25.70
2017-07-29T12:12:35.646Z,25.40
2017-07-29T12:15:03.823Z,25.20
2017-07-29T12:17:31.998Z,25.70
2017-07-29T12:20:00.094Z,25.50
2017-07-29T12:22:29.058Z,26.40
2017-07-29T12:24:57.140Z,25.30
2017-07-29T12:27:25.621Z,24.00
2017-07-29T12:29:53.790Z,24.00
2017-07-29T12:32:23.090Z,23.30
2017-07-29T12:34:51.270Z,23.70
2017-07-29T12:37:19.439Z,23.20
2017-07-29T12:39:47.936Z,23.60
2017-07-29T12:42:16.014Z,22.70
2017-07-29T12:44:44.175Z,23.00
2017-07-29T12:47:12.290Z,23.10
2017-07-29T12:49:40.834Z,25.20
2017-07-29T12:52:08.922Z,25.80
2017-07-29T12:54:37.501Z,27.00
2017-07-29T12:57:05.676Z,27.50
2017-07-29T12:59:33.833Z,27.60
2017-07-29T13:02:01.963Z,26.70
2017-07-29T13:04:39.981Z,24.90
2017-07-29T13:07:09.632Z,24.80
2017-07-29T13:09:37.697Z,24.20
2017-07-29T13:12:05.786Z,24.50
2017-07-29T13:14:34.666Z,25.40
2017-07-29T13:17:02.742Z,24.90
2017-07-29T13:19:31.302Z,24.00
2017-07-29T13:21:59.481Z,23.90
2017-07-29T13:24:27.581Z,22.90
2017-07-29T13:26:55.726Z,22.70
2017-07-29T13:29:23.812Z,22.30
2017-07-29T13:31:51.970Z,22.30
2017-07-29T13:34:20.149Z,21.90
2017-07-29T13:36:48.330Z,22.00
2017-07-29T13:39:16.493Z,22.50
2017-07-29T13:41:44.636Z,21.40
2017-07-29T13:44:13.864Z,21.90
2017-07-29T13:46:41.937Z,21.70
2017-07-29T13:49:10.111Z,21.70
2017-07-29T13:51:38.590Z,21.80
2017-07-29T13:54:06.779Z,22.20
2017-07-29T13:56:34.942Z,21.90
2017-07-29T13:59:03.128Z,21.70
2017-07-29T14:01:31.629Z,22.50
2017-07-29T14:04:00.478Z,22.70
2017-07-29T14:06:28.662Z,21.40
2017-07-29T14:08:57.157Z,20.90
2017-07-29T14:11:25.726Z,21.20
2017-07-29T14:13:53.853Z,20.70
2017-07-29T14:16:21.986Z,21.40
2017-07-29T14:18:51.277Z,22.00
2017-07-29T14:21:19.862Z,22.30
2017-07-29T14:23:48.046Z,22.70
2017-07-29T14:26:17.633Z,23.80
2017-07-29T14:28:45.737Z,22.50
2017-07-29T14:31:14.298Z,22.60
2017-07-29T14:33:42.484Z,24.20
2017-07-29T14:36:10.972Z,25.70
2017-07-29T14:38:39.130Z,26.10
2017-07-29T14:41:07.246Z,25.60
2017-07-29T14:43:36.070Z,26.90
2017-07-29T14:46:04.182Z,26.20
2017-07-29T14:48:35.972Z,26.70
2017-07-29T14:51:04.079Z,27.20
2017-07-29T14:53:32.267Z,26.20
2017-07-29T14:56:00.365Z,25.50
2017-07-29T14:58:29.318Z,25.50
2017-07-29T15:00:57.509Z,26.00
2017-07-29T15:03:25.650Z,26.90
2017-07-29T15:05:54.150Z,25.30
2017-07-29T15:08:24.077Z,25.20
2017-07-29T15:10:52.250Z,25.90
2017-07-29T15:13:20.763Z,25.50
2017-07-29T15:15:49.582Z,25.10
2017-07-29T15:18:17.693Z,25.50
2017-07-29T15:20:45.860Z,25.70
2017-07-29T15:23:14.058Z,25.80
2017-07-29T15:25:42.135Z,26.20
2017-07-29T15:28:10.706Z,25.60
2017-07-29T15:30:38.795Z,24.20
2017-07-29T15:33:06.954Z,24.40
2017-07-29T15:35:35.118Z,24.00
2017-07-29T15:38:03.299Z,25.10
2017-07-29T15:40:31.397Z,26.00
2017-07-29T15:42:59.485Z,26.80
2017-07-29T15:45:27.558Z,27.20
2017-07-29T15:47:56.510Z,25.90
2017-07-29T15:50:24.642Z,26.10
2017-07-29T15:52:52.751Z,25.80
2017-07-29T15:55:20.829Z,25.50
2017-07-29T15:57:49.111Z,26.30
2017-07-29T16:00:17.178Z,26.30
2017-07-29T16:02:45.347Z,25.30
2017-07-29T16:05:13.461Z,26.00
2017-07-29T16:07:42.319Z,27.00
2017-07-29T16:10:10.443Z,27.00
2017-07-29T16:12:38.557Z,25.30
2017-07-29T16:15:06.731Z,26.10
2017-07-29T16:17:34.858Z,26.60
2017-07-29T16:20:02.925Z,27.70
2017-07-29T16:22:31.007Z,26.20
2017-07-29T16:24:59.130Z,26.80
2017-07-29T16:27:28.369Z,26.60
2017-07-29T16:29:57.210Z,27.50
2017-07-29T16:32:25.697Z,27.10
2017-07-29T16:34:53.814Z,27.20
2017-07-29T16:37:21.890Z,27.20
2017-07-29T16:39:50.030Z,27.10
2017-07-29T16:42:18.898Z,27.30
2017-07-29T16:44:47.094Z,27.40
2017-07-29T16:47:15.658Z,28.40
2017-07-29T16:49:43.746Z,27.80
2017-07-29T16:52:11.814Z,28.30
2017-07-29T16:54:39.973Z,28.80
2017-07-29T16:57:08.049Z,28.80
2017-07-29T16:59:36.161Z,29.30
2017-07-29T17:02:04.992Z,31.30
2017-07-29T17:04:33.490Z,30.30
2017-07-29T17:07:01.687Z,31.00
2017-07-29T17:09:29.847Z,30.20
2017-07-29T17:11:58.019Z,29.60
2017-07-29T17:14:26.186Z,29.70
2017-07-29T17:16:54.366Z,30.00
2017-07-29T17:19:22.437Z,29.90
2017-07-29T17:21:51.014Z,30.60
2017-07-29T17:24:19.130Z,31.20
2017-07-29T17:26:47.670Z,32.30
2017-07-29T17:29:15.845Z,32.50
2017-07-29T17:31:44.030Z,32.90
2017-07-29T17:34:12.207Z,33.30
2017-07-29T17:36:40.428Z,33.00
2017-07-29T17:39:08.546Z,33.30
2017-07-29T17:41:36.733Z,33.10
2017-07-29T17:44:12.877Z,33.60
2017-07-29T17:46:40.979Z,33.80
2017-07-29T17:49:09.132Z,34.30
2017-07-29T17:51:37.218Z,34.90
2017-07-29T17:54:06.079Z,35.30
2017-07-29T17:56:34.186Z,35.30
2017-07-29T17:59:02.307Z,35.70
2017-07-29T18:01:30.422Z,35.60
2017-07-29T18:03:58.483Z,35.80
2017-07-29T18:06:26.658Z,35.70
2017-07-29T18:08:54.741Z,35.00
2017-07-29T18:11:22.910Z,35.20
2017-07-29T18:13:52.440Z,35.20
2017-07-29T18:16:33.343Z,35.20
2017-07-29T18:19:01.455Z,35.20
2017-07-29T18:21:29.542Z,35.60
2017-07-29T18:23:57.686Z,35.90
2017-07-29T18:26:25.767Z,36.40
2017-07-29T18:28:54.526Z,36.60
2017-07-29T18:31:23.354Z,37.50
2017-07-29T18:33:51.434Z,37.60
2017-07-29T18:36:20.033Z,38.00
2017-07-29T18:38:48.098Z,38.00
2017-07-29T18:41:16.180Z,38.60
2017-07-29T18:43:47.083Z,38.60
2017-07-29T18:46:15.557Z,38.90
2017-07-29T18:48:43.652Z,39.40
2017-07-29T18:51:11.749Z,40.20
2017-07-29T18:53:40.644Z,41.50
2017-07-29T18:56:09.498Z,42.20
2017-07-29T18:58:37.670Z,42.10
2017-07-29T19:01:05.846Z,42.40
2017-07-29T19:03:34.022Z,42.80
2017-07-29T19:06:02.128Z,43.70
2017-07-29T19:08:30.973Z,44.50
2017-07-29T19:10:59.167Z,44.00
2017-07-29T19:13:27.244Z,44.10
2017-07-29T19:15:55.383Z,44.90
2017-07-29T19:18:24.244Z,46.20
2017-07-29T19:20:52.361Z,46.30
2017-07-29T19:23:20.830Z,46.20
2017-07-29T19:25:48.957Z,47.70
2017-07-29T19:28:17.503Z,48.60
2017-07-29T19:30:45.678Z,48.80
2017-07-29T19:33:15.398Z,49.40
2017-07-29T19:35:43.487Z,50.50
2017-07-29T19:38:11.662Z,50.70
2017-07-29T19:40:39.850Z,51.30
2017-07-29T19:43:08.011Z,51.70
2017-07-29T19:45:36.191Z,52.30
2017-07-29T19:48:04.262Z,52.70
2017-07-29T19:50:32.422Z,53.10
2017-07-29T19:53:00.608Z,53.00
2017-07-29T19:55:28.678Z,52.70
2017-07-29T19:57:58.174Z,53.00
2017-07-29T20:00:27.167Z,53.10
2017-07-29T20:02:55.646Z,53.10
2017-07-29T20:05:23.752Z,53.60
2017-07-29T20:07:52.223Z,54.70
2017-07-29T20:10:20.690Z,53.80
2017-07-29T20:12:48.786Z,55.00
2017-07-29T20:15:16.858Z,55.30
2017-07-29T20:17:45.726Z,56.60
2017-07-29T20:20:14.231Z,56.00
2017-07-29T20:22:43.071Z,56.40
2017-07-29T20:25:11.151Z,55.80
2017-07-29T20:27:39.326Z,56.50
2017-07-29T20:30:07.374Z,57.00
2017-07-29T20:32:35.455Z,57.80
2017-07-29T20:35:04.321Z,57.20
2017-07-29T20:37:35.696Z,57.50
2017-07-29T20:40:03.802Z,56.70
2017-07-29T20:42:32.270Z,57.10
2017-07-29T20:45:00.351Z,57.70
2017-07-29T20:47:28.459Z,57.60
2017-07-29T20:49:57.294Z,58.10
2017-07-29T20:52:25.786Z,57.20
2017-07-29T20:54:53.878Z,57.40
2017-07-29T20:57:22.038Z,57.50
2017-07-29T20:59:50.206Z,58.00
2017-07-29T21:02:18.286Z,58.50
2017-07-29T21:04:46.454Z,58.40
2017-07-29T21:07:14.625Z,58.90
2017-07-29T21:09:42.806Z,59.10
2017-07-29T21:12:10.918Z,59.00
2017-07-29T21:14:40.153Z,59.50
2017-07-29T21:17:08.251Z,58.90
2017-07-29T21:19:36.417Z,58.90
2017-07-29T21:22:04.602Z,58.50
2017-07-29T21:24:32.689Z,59.30
2017-07-29T21:27:00.838Z,58.80
2017-07-29T21:29:29.017Z,59.10
2017-07-29T21:31:57.193Z,58.80
2017-07-29T21:34:25.365Z,59.80
2017-07-29T21:36:53.441Z,59.50
2017-07-29T21:39:21.614Z,60.20
2017-07-29T21:41:49.748Z,60.00
2017-07-29T21:44:17.862Z,60.00
2017-07-29T21:46:46.029Z,60.60
2017-07-29T21:49:14.902Z,60.10
2017-07-29T21:51:42.974Z,60.60
2017-07-29T21:54:11.210Z,59.90
2017-07-29T21:56:40.060Z,60.80
2017-07-29T21:59:08.239Z,59.30
2017-07-29T22:01:36.410Z,60.00
2017-07-29T22:04:04.497Z,60.10
2017-07-29T22:06:32.565Z,59.80
2017-07-29T22:09:00.747Z,59.70
2017-07-29T22:11:28.902Z,60.20
2017-07-29T22:13:57.002Z,60.10
2017-07-29T22:16:25.558Z,60.20
2017-07-29T22:18:53.734Z,60.70
2017-07-29T22:21:21.906Z,60.70
2017-07-29T22:24:00.015Z,61.20
2017-07-29T22:26:29.406Z,61.10
2017-07-29T22:28:57.589Z,62.50
2017-07-29T22:31:25.658Z,63.50
2017-07-29T22:33:53.781Z,63.70
2017-07-29T22:36:21.902Z,63.90
2017-07-29T22:38:50.379Z,63.50
2017-07-29T22:41:18.442Z,64.00
2017-07-29T22:43:46.536Z,63.90
2017-07-29T22:46:14.646Z,64.40
2017-07-29T22:48:42.722Z,64.40
2017-07-29T22:51:11.193Z,64.20
2017-07-29T22:53:40.501Z,64.80
2017-07-29T22:56:08.578Z,65.30
2017-07-29T22:58:36.680Z,64.50
2017-07-29T23:01:04.823Z,64.70
2017-07-29T23:03:33.679Z,64.20
2017-07-29T23:06:01.760Z,64.00
2017-07-29T23:08:29.836Z,64.00
2017-07-29T23:10:58.698Z,65.00
2017-07-29T23:13:26.770Z,64.80
2017-07-29T23:15:54.902Z,64.90
2017-07-29T23:18:23.378Z,65.20
2017-07-29T23:20:51.467Z,64.60
2017-07-29T23:23:19.574Z,64.30
2017-07-29T23:25:47.683Z,64.80
2017-07-29T23:28:16.518Z,66.10
2017-07-29T23:30:44.604Z,65.50
2017-07-29T23:33:13.111Z,66.00
2017-07-29T23:35:42.304Z,65.70
2017-07-29T23:38:10.786Z,65.00
2017-07-29T23:40:39.277Z,65.60
2017-07-29T23:43:08.154Z,67.10
2017-07-29T23:45:36.622Z,64.60
2017-07-29T23:48:04.709Z,64.70
2017-07-29T23:50:32.857Z,65.40
2017-07-29T23:53:00.955Z,65.60
2017-07-29T23:55:29.013Z,66.30
2017-07-29T23:57:57.881Z,65.30
